createdAt,value
2018-07-17T00:01:13.970Z,18.30
2018-07-17T00:03:43.157Z,18.30
2018-07-17T00:06:12.418Z,18.30
2018-07-17T00:08:41.608Z,18.30
2018-07-17T00:11:10.886Z,18.20
2018-07-17T00:13:40.126Z,18.20
2018-07-17T00:16:09.292Z,18.20
2018-07-17T00:18:38.468Z,18.20
2018-07-17T00:21:08.504Z,18.20
2018-07-17T00:23:37.624Z,18.10
2018-07-17T00:26:07.070Z,18.10
2018-07-17T00:28:36.973Z,18.10
2018-07-17T00:31:06.147Z,18.10
2018-07-17T00:33:36.584Z,18.10
2018-07-17T00:36:06.074Z,18.00
2018-07-17T00:38:36.130Z,17.90
2018-07-17T00:41:06.021Z,17.90
2018-07-17T00:43:35.235Z,17.90
2018-07-17T00:46:04.785Z,17.90
2018-07-17T00:48:34.084Z,17.80
2018-07-17T00:51:03.757Z,17.80
2018-07-17T00:53:32.919Z,17.80
2018-07-17T00:56:02.255Z,17.70
2018-07-17T00:58:31.493Z,17.70
2018-07-17T01:00:59.757Z,17.60
2018-07-17T01:03:34.248Z,17.60
2018-07-17T01:06:08.925Z,17.60
2018-07-17T01:08:43.265Z,17.60
2018-07-17T01:11:17.881Z,17.50
2018-07-17T01:13:53.437Z,17.50
2018-07-17T01:16:29.130Z,17.50
2018-07-17T01:18:58.469Z,17.50
2018-07-17T01:21:27.689Z,17.40
2018-07-17T01:23:56.812Z,17.40
2018-07-17T01:26:26.117Z,17.40
2018-07-17T01:28:55.636Z,17.40
2018-07-17T01:31:24.749Z,17.40
2018-07-17T01:33:53.940Z,17.30
2018-07-17T01:36:23.234Z,17.20
2018-07-17T01:38:52.406Z,17.30
2018-07-17T01:41:21.626Z,17.30
2018-07-17T01:43:50.826Z,17.20
2018-07-17T01:46:20.028Z,17.20
2018-07-17T01:48:49.234Z,17.20
2018-07-17T01:51:18.346Z,17.10
2018-07-17T01:53:47.633Z,17.10
2018-07-17T01:56:16.852Z,17.10
2018-07-17T01:58:46.217Z,17.10
2018-07-17T02:01:15.518Z,17.00
2018-07-17T02:03:44.833Z,17.00
2018-07-17T02:06:14.098Z,17.00
2018-07-17T02:08:43.200Z,16.90
2018-07-17T02:11:12.353Z,16.90
2018-07-17T02:13:46.914Z,16.90
2018-07-17T02:16:16.292Z,16.90
2018-07-17T02:18:45.862Z,16.80
2018-07-17T02:21:15.175Z,16.80
2018-07-17T02:23:44.385Z,16.70
2018-07-17T02:26:13.857Z,16.60
2018-07-17T02:28:43.033Z,16.60
2018-07-17T02:33:41.320Z,16.60
2018-07-17T02:36:10.414Z,16.50
2018-07-17T02:38:39.537Z,16.50
2018-07-17T02:41:08.773Z,16.50
2018-07-17T02:43:37.869Z,16.40
2018-07-17T02:46:06.954Z,16.40
2018-07-17T02:48:36.090Z,16.40
2018-07-17T02:51:05.181Z,16.40
2018-07-17T02:53:34.384Z,16.30
2018-07-17T02:56:03.557Z,16.30
2018-07-17T02:58:32.799Z,16.20
2018-07-17T03:01:01.973Z,16.20
2018-07-17T03:03:31.081Z,16.30
2018-07-17T03:06:00.240Z,16.30
2018-07-17T03:08:29.502Z,16.20
2018-07-17T03:10:58.803Z,16.30
2018-07-17T03:13:28.037Z,16.40
2018-07-17T03:15:57.281Z,16.30
2018-07-17T03:18:26.576Z,16.30
2018-07-17T03:20:55.702Z,16.30
2018-07-17T03:23:24.874Z,16.30
2018-07-17T03:25:54.010Z,16.30
2018-07-17T03:28:23.130Z,16.30
2018-07-17T03:30:52.243Z,16.30
2018-07-17T03:33:21.397Z,16.30
2018-07-17T03:35:50.521Z,16.20
2018-07-17T03:38:19.672Z,16.20
2018-07-17T03:40:48.869Z,16.10
2018-07-17T03:43:18.126Z,16.10
2018-07-17T03:48:16.127Z,16.10
2018-07-17T03:50:45.274Z,16.10
2018-07-17T03:53:14.380Z,16.20
2018-07-17T03:55:43.585Z,16.20
2018-07-17T03:58:12.714Z,16.30
2018-07-17T04:00:41.815Z,16.40
2018-07-17T04:03:10.997Z,16.30
2018-07-17T04:05:41.183Z,16.30
2018-07-17T04:08:10.360Z,16.40
2018-07-17T04:10:39.702Z,16.40
2018-07-17T04:13:08.919Z,16.50
2018-07-17T04:15:38.140Z,16.50
2018-07-17T04:18:07.433Z,16.50
2018-07-17T04:20:36.972Z,16.40
2018-07-17T04:23:07.510Z,16.30
2018-07-17T04:25:36.853Z,16.30
2018-07-17T04:28:06.480Z,16.40
2018-07-17T04:30:35.661Z,16.50
2018-07-17T04:33:04.900Z,16.50
2018-07-17T04:35:34.726Z,16.60
2018-07-17T04:38:03.975Z,16.50
2018-07-17T04:40:33.236Z,16.60
2018-07-17T04:43:02.409Z,16.70
2018-07-17T04:45:31.565Z,16.70
2018-07-17T04:48:00.763Z,16.90
2018-07-17T04:50:29.910Z,17.00
2018-07-17T04:52:59.116Z,17.00
2018-07-17T04:55:28.212Z,17.10
2018-07-17T04:57:57.312Z,17.10
2018-07-17T05:00:26.558Z,17.20
2018-07-17T05:02:55.646Z,17.30
2018-07-17T05:05:24.811Z,17.40
2018-07-17T05:07:54.004Z,17.40
2018-07-17T05:10:24.143Z,17.50
2018-07-17T05:12:53.522Z,17.50
2018-07-17T05:15:23.211Z,17.60
2018-07-17T05:17:52.820Z,17.60
2018-07-17T05:20:22.145Z,17.70
2018-07-17T05:22:51.525Z,17.70
2018-07-17T05:25:21.369Z,17.90
2018-07-17T05:27:50.823Z,18.00
2018-07-17T05:30:20.107Z,18.20
2018-07-17T05:32:49.376Z,18.30
2018-07-17T05:35:18.674Z,18.30
2018-07-17T05:37:47.977Z,18.70
2018-07-17T05:40:17.169Z,19.40
2018-07-17T05:42:46.269Z,20.10
2018-07-17T05:45:15.376Z,20.80
2018-07-17T05:47:44.602Z,21.50
2018-07-17T05:50:13.812Z,22.10
2018-07-17T05:52:42.991Z,22.50
2018-07-17T05:55:12.174Z,22.90
2018-07-17T05:57:41.331Z,23.00
2018-07-17T06:00:10.990Z,23.00
2018-07-17T06:02:40.176Z,23.20
2018-07-17T06:05:09.311Z,23.60
2018-07-17T06:07:38.425Z,24.10
2018-07-17T06:10:07.589Z,24.30
2018-07-17T06:12:36.886Z,24.50
2018-07-17T06:15:06.127Z,24.70
2018-07-17T06:17:35.524Z,24.60
2018-07-17T06:20:05.272Z,24.70
2018-07-17T06:22:34.512Z,24.90
2018-07-17T06:25:06.517Z,24.80
2018-07-17T06:27:35.629Z,24.80
2018-07-17T06:30:06.533Z,24.40
2018-07-17T06:32:35.829Z,24.10
2018-07-17T06:35:05.567Z,24.10
2018-07-17T06:37:35.535Z,24.00
2018-07-17T06:40:05.117Z,24.30
2018-07-17T06:45:04.690Z,23.50
2018-07-17T06:47:34.632Z,23.20
2018-07-17T06:50:06.860Z,23.00
2018-07-17T06:52:36.342Z,22.80
2018-07-17T06:55:06.164Z,22.60
2018-07-17T06:57:36.950Z,22.70
2018-07-17T07:00:06.873Z,22.50
2018-07-17T07:02:38.090Z,22.40
2018-07-17T07:05:08.164Z,22.40
2018-07-17T07:07:38.462Z,22.40
2018-07-17T07:10:08.620Z,22.50
2018-07-17T07:12:39.379Z,22.60
2018-07-17T07:15:09.720Z,22.60
2018-07-17T07:17:39.618Z,22.70
2018-07-17T07:20:09.161Z,22.60
2018-07-17T07:22:38.903Z,22.70
2018-07-17T07:25:09.676Z,22.80
2018-07-17T07:27:40.327Z,22.90
2018-07-17T07:30:10.557Z,23.00
2018-07-17T07:35:10.225Z,23.00
2018-07-17T07:37:41.333Z,23.10
2018-07-17T07:40:11.793Z,23.10
2018-07-17T07:42:42.060Z,23.10
2018-07-17T07:45:12.459Z,23.20
2018-07-17T07:47:43.451Z,23.20
2018-07-17T07:52:45.070Z,23.20
2018-07-17T07:55:15.203Z,23.30
2018-07-17T07:57:44.570Z,23.40
2018-07-17T08:00:15.389Z,23.40
2018-07-17T08:02:44.864Z,23.50
2018-07-17T08:05:14.133Z,23.60
2018-07-17T08:07:43.278Z,23.70
2018-07-17T08:10:12.455Z,23.90
2018-07-17T08:12:41.695Z,24.00
2018-07-17T08:15:10.819Z,24.00
2018-07-17T08:17:40.011Z,24.10
2018-07-17T08:20:09.392Z,24.10
2018-07-17T08:22:38.523Z,24.10
2018-07-17T08:25:07.674Z,24.30
2018-07-17T08:27:48.782Z,24.30
2018-07-17T08:30:18.736Z,24.40
2018-07-17T08:32:48.316Z,24.40
2018-07-17T08:35:17.653Z,24.40
2018-07-17T08:37:46.796Z,24.60
2018-07-17T08:40:16.126Z,24.60
2018-07-17T08:42:45.270Z,24.80
2018-07-17T08:45:14.527Z,24.90
2018-07-17T08:47:43.872Z,25.00
2018-07-17T08:50:18.930Z,25.10
2018-07-17T08:52:48.280Z,25.20
2018-07-17T08:55:17.848Z,25.30
2018-07-17T08:57:46.943Z,25.30
2018-07-17T09:00:16.117Z,25.50
2018-07-17T09:02:45.757Z,25.50
2018-07-17T09:05:14.937Z,25.60
2018-07-17T09:07:44.060Z,25.70
2018-07-17T09:10:14.399Z,25.80
2018-07-17T09:12:43.604Z,26.00
2018-07-17T09:15:13.311Z,25.90
2018-07-17T09:17:42.519Z,25.90
2018-07-17T09:20:11.713Z,26.00
2018-07-17T09:22:41.973Z,26.10
2018-07-17T09:25:11.270Z,26.00
2018-07-17T09:27:40.391Z,25.90
2018-07-17T09:30:09.707Z,25.80
2018-07-17T09:32:39.107Z,25.90
2018-07-17T09:35:08.231Z,26.10
2018-07-17T09:37:37.466Z,26.10
2018-07-17T09:40:07.560Z,26.20
2018-07-17T09:42:37.633Z,26.20
2018-07-17T09:45:07.758Z,26.20
2018-07-17T09:47:38.320Z,26.40
2018-07-17T09:50:08.304Z,26.40
2018-07-17T09:52:39.541Z,26.40
2018-07-17T09:55:09.591Z,26.50
2018-07-17T09:57:39.621Z,26.60
2018-07-17T10:00:16.122Z,26.70
2018-07-17T10:02:45.496Z,26.70
2018-07-17T10:05:14.650Z,26.70
2018-07-17T10:07:44.286Z,26.70
2018-07-17T10:10:13.732Z,26.80
2018-07-17T10:12:42.880Z,26.90
2018-07-17T10:15:13.123Z,26.90
2018-07-17T10:17:43.134Z,26.90
2018-07-17T10:20:13.093Z,26.90
2018-07-17T10:22:42.432Z,26.90
2018-07-17T10:25:12.007Z,26.90
2018-07-17T10:27:46.193Z,27.00
2018-07-17T10:30:16.038Z,27.00
2018-07-17T10:32:45.545Z,27.10
2018-07-17T10:35:15.055Z,27.20
2018-07-17T10:37:45.648Z,27.20
2018-07-17T10:40:14.868Z,27.20
2018-07-17T10:42:44.927Z,27.20
2018-07-17T10:45:14.691Z,27.20
2018-07-17T10:50:13.396Z,27.30
2018-07-17T10:52:43.553Z,27.40
2018-07-17T10:55:13.864Z,27.40
2018-07-17T10:57:43.695Z,27.50
2018-07-17T11:00:13.329Z,27.60
2018-07-17T11:02:43.095Z,27.70
2018-07-17T11:05:13.444Z,27.70
2018-07-17T11:07:43.482Z,27.80
2018-07-17T11:10:13.093Z,27.60
2018-07-17T11:12:42.303Z,27.60
2018-07-17T11:15:11.778Z,27.60
2018-07-17T11:17:40.934Z,27.50
2018-07-17T11:20:10.478Z,27.60
2018-07-17T11:22:39.635Z,27.60
2018-07-17T11:25:08.937Z,27.70
2018-07-17T11:27:38.173Z,27.80
2018-07-17T11:30:08.117Z,27.70
2018-07-17T11:32:37.363Z,27.70
2018-07-17T11:35:07.046Z,27.70
2018-07-17T11:37:36.705Z,27.70
2018-07-17T11:40:06.374Z,27.80
2018-07-17T11:42:35.512Z,27.80
2018-07-17T11:45:05.172Z,27.80
2018-07-17T11:47:34.326Z,27.90
2018-07-17T11:50:03.602Z,28.00
2018-07-17T11:52:32.711Z,28.10
2018-07-17T11:55:01.856Z,28.30
2018-07-17T11:57:30.987Z,28.50
2018-07-17T12:00:00.290Z,28.30
2018-07-17T12:02:29.631Z,28.00
2018-07-17T12:04:58.801Z,27.80
2018-07-17T12:07:27.974Z,27.70
2018-07-17T12:09:57.272Z,27.80
2018-07-17T12:12:26.636Z,28.00
2018-07-17T12:14:55.760Z,28.10
2018-07-17T12:17:24.889Z,28.20
2018-07-17T12:19:54.802Z,28.40
2018-07-17T12:22:24.583Z,28.50
2018-07-17T12:24:53.964Z,28.70
2018-07-17T12:27:23.148Z,28.50
2018-07-17T12:32:21.096Z,28.50
2018-07-17T12:34:50.382Z,28.60
2018-07-17T12:39:48.387Z,28.70
2018-07-17T12:42:17.785Z,28.50
2018-07-17T12:44:46.979Z,28.20
2018-07-17T12:47:16.156Z,27.90
2018-07-17T12:49:45.350Z,28.00
2018-07-17T12:52:14.757Z,27.90
2018-07-17T12:54:43.880Z,28.00
2018-07-17T12:57:13.046Z,28.20
2018-07-17T12:59:42.169Z,28.30
2018-07-17T13:02:11.333Z,28.50
2018-07-17T13:04:40.464Z,28.60
2018-07-17T13:07:10.896Z,28.50
2018-07-17T13:09:40.242Z,28.40
2018-07-17T13:12:09.847Z,28.40
2018-07-17T13:14:40.020Z,28.40
2018-07-17T13:17:09.353Z,28.50
2018-07-17T13:19:38.568Z,28.60
2018-07-17T13:22:08.031Z,28.70
2018-07-17T13:24:37.604Z,28.50
2018-07-17T13:27:07.249Z,28.60
2018-07-17T13:29:36.670Z,28.70
2018-07-17T13:32:06.703Z,28.80
2018-07-17T13:34:36.720Z,28.80
2018-07-17T13:37:07.364Z,28.80
2018-07-17T13:39:36.852Z,28.90
2018-07-17T13:42:08.924Z,28.90
2018-07-17T13:44:39.173Z,29.00
2018-07-17T13:47:08.410Z,28.90
2018-07-17T13:49:37.557Z,28.80
2018-07-17T13:52:06.921Z,28.90
2018-07-17T13:54:36.101Z,28.90
2018-07-17T13:57:05.471Z,29.00
2018-07-17T13:59:34.863Z,29.10
2018-07-17T14:04:33.326Z,29.10
2018-07-17T14:07:02.697Z,29.10
2018-07-17T14:09:32.283Z,29.00
2018-07-17T14:12:01.821Z,29.10
2018-07-17T14:14:31.106Z,29.00
2018-07-17T14:17:00.369Z,29.10
2018-07-17T14:19:29.846Z,29.20
2018-07-17T14:21:59.272Z,29.20
2018-07-17T14:24:28.476Z,29.20
2018-07-17T14:26:57.746Z,29.20
2018-07-17T14:29:27.005Z,29.20
2018-07-17T14:31:56.140Z,29.20
2018-07-17T14:34:25.382Z,29.30
2018-07-17T14:36:54.652Z,29.30
2018-07-17T14:39:23.825Z,29.40
2018-07-17T14:41:53.106Z,29.40
2018-07-17T14:44:22.709Z,29.40
2018-07-17T14:46:52.188Z,29.20
2018-07-17T14:49:22.258Z,29.10
2018-07-17T14:51:52.149Z,29.00
2018-07-17T14:54:21.672Z,29.10
2018-07-17T14:56:51.190Z,29.20
2018-07-17T14:59:20.592Z,29.20
2018-07-17T15:01:50.008Z,29.30
2018-07-17T15:04:19.439Z,29.30
2018-07-17T15:06:48.851Z,29.20
2018-07-17T15:09:17.953Z,29.20
2018-07-17T15:11:47.296Z,29.20
2018-07-17T15:14:16.374Z,29.20
2018-07-17T15:16:45.615Z,29.20
2018-07-17T15:19:14.772Z,29.10
2018-07-17T15:21:44.051Z,29.10
2018-07-17T15:24:13.162Z,29.20
2018-07-17T15:26:42.605Z,29.30
2018-07-17T15:29:11.766Z,29.40
2018-07-17T15:31:40.881Z,29.40
2018-07-17T15:34:10.004Z,29.40
2018-07-17T15:36:39.074Z,29.20
2018-07-17T15:39:10.888Z,29.20
2018-07-17T15:41:40.411Z,29.10
2018-07-17T15:44:09.577Z,29.20
2018-07-17T15:49:07.680Z,29.30
2018-07-17T15:51:36.886Z,29.30
2018-07-17T15:54:06.629Z,29.30
2018-07-17T15:56:35.788Z,29.20
2018-07-17T15:59:05.388Z,29.20
2018-07-17T16:01:34.859Z,29.10
2018-07-17T16:06:33.310Z,28.90
2018-07-17T16:09:02.559Z,28.90
2018-07-17T16:11:31.955Z,28.90
2018-07-17T16:14:01.748Z,29.00
2018-07-17T16:16:30.670Z,29.00
2018-07-17T16:18:59.849Z,29.10
2018-07-17T16:21:29.150Z,29.10
2018-07-17T16:23:58.250Z,29.10
2018-07-17T16:26:27.523Z,29.10
2018-07-17T16:28:56.709Z,29.10
2018-07-17T16:31:25.867Z,29.10
2018-07-17T16:33:55.508Z,29.10
2018-07-17T16:36:24.771Z,29.10
2018-07-17T16:38:54.158Z,29.10
2018-07-17T16:41:23.457Z,29.10
2018-07-17T16:43:52.605Z,29.10
2018-07-17T16:46:21.765Z,29.00
2018-07-17T16:48:50.937Z,28.90
2018-07-17T16:51:20.291Z,28.80
2018-07-17T16:53:49.577Z,28.90
2018-07-17T16:56:18.899Z,28.80
2018-07-17T16:58:48.079Z,28.80
2018-07-17T17:01:17.355Z,28.80
2018-07-17T17:03:46.779Z,28.80
2018-07-17T17:06:16.867Z,28.90
2018-07-17T17:08:46.475Z,28.80
2018-07-17T17:11:15.977Z,28.80
2018-07-17T17:13:45.649Z,28.70
2018-07-17T17:16:14.965Z,28.60
2018-07-17T17:21:13.726Z,28.60
2018-07-17T17:23:43.567Z,28.60
2018-07-17T17:26:14.146Z,28.60
2018-07-17T17:28:44.028Z,28.60
2018-07-17T17:31:14.067Z,28.60
2018-07-17T17:33:43.928Z,28.60
2018-07-17T17:36:13.285Z,28.50
2018-07-17T17:38:42.542Z,28.50
2018-07-17T17:41:11.768Z,28.40
2018-07-17T17:43:40.926Z,28.40
2018-07-17T17:46:10.758Z,28.40
2018-07-17T17:48:40.169Z,28.40
2018-07-17T17:51:09.389Z,28.30
2018-07-17T17:53:38.630Z,28.30
2018-07-17T17:56:08.455Z,28.30
2018-07-17T17:58:39.677Z,28.20
2018-07-17T18:01:08.991Z,28.30
2018-07-17T18:03:38.332Z,28.50
2018-07-17T18:06:07.492Z,28.60
2018-07-17T18:08:36.810Z,28.70
2018-07-17T18:11:06.090Z,28.80
2018-07-17T18:13:35.308Z,28.80
2018-07-17T18:16:04.493Z,28.70
2018-07-17T18:18:33.680Z,28.50
2018-07-17T18:21:02.932Z,28.50
2018-07-17T18:23:32.347Z,28.50
2018-07-17T18:26:01.755Z,28.40
2018-07-17T18:28:31.155Z,28.30
2018-07-17T18:31:00.624Z,28.30
2018-07-17T18:33:29.950Z,28.00
2018-07-17T18:35:59.385Z,27.80
2018-07-17T18:38:28.917Z,27.60
2018-07-17T18:40:58.595Z,27.40
2018-07-17T18:43:28.003Z,27.30
2018-07-17T18:45:58.361Z,27.10
2018-07-17T18:48:28.464Z,27.00
2018-07-17T18:50:57.952Z,26.90
2018-07-17T18:53:27.396Z,26.80
2018-07-17T18:55:57.686Z,26.70
2018-07-17T18:58:27.313Z,26.60
2018-07-17T19:00:56.521Z,26.50
2018-07-17T19:03:26.099Z,26.40
2018-07-17T19:05:56.719Z,26.30
2018-07-17T19:08:26.066Z,26.20
2018-07-17T19:10:55.271Z,26.10
2018-07-17T19:13:24.468Z,26.10
2018-07-17T19:15:53.590Z,26.00
2018-07-17T19:18:22.939Z,25.90
2018-07-17T19:20:52.316Z,25.90
2018-07-17T19:23:21.474Z,25.80
2018-07-17T19:25:50.751Z,25.40
2018-07-17T19:28:19.927Z,24.70
2018-07-17T19:30:49.325Z,24.10
2018-07-17T19:33:18.564Z,23.70
2018-07-17T19:35:47.821Z,23.40
2018-07-17T19:38:17.081Z,23.20
2018-07-17T19:40:46.373Z,22.90
2018-07-17T19:43:15.521Z,22.70
2018-07-17T19:45:44.904Z,22.60
2018-07-17T19:48:15.131Z,22.40
2018-07-17T19:50:44.449Z,22.30
2018-07-17T19:53:13.928Z,22.10
2018-07-17T19:55:43.664Z,22.00
2018-07-17T19:58:13.640Z,22.00
2018-07-17T20:00:44.258Z,21.90
2018-07-17T20:03:13.763Z,21.90
2018-07-17T20:05:43.130Z,21.80
2018-07-17T20:08:12.592Z,21.70
2018-07-17T20:10:41.949Z,21.60
2018-07-17T20:13:11.312Z,21.50
2018-07-17T20:15:40.723Z,21.40
2018-07-17T20:18:10.223Z,21.40
2018-07-17T20:20:39.488Z,21.40
2018-07-17T20:23:08.921Z,21.40
2018-07-17T20:25:38.136Z,21.30
2018-07-17T20:28:07.341Z,21.30
2018-07-17T20:30:36.612Z,21.30
2018-07-17T20:33:05.983Z,21.20
2018-07-17T20:35:35.369Z,21.20
2018-07-17T20:38:04.639Z,21.30
2018-07-17T20:40:34.016Z,21.30
2018-07-17T20:43:03.324Z,21.30
2018-07-17T20:45:33.738Z,21.30
2018-07-17T20:48:03.068Z,21.20
2018-07-17T20:50:32.741Z,21.20
2018-07-17T20:53:02.197Z,21.20
2018-07-17T20:55:31.462Z,21.20
2018-07-17T20:58:00.974Z,21.10
2018-07-17T21:00:30.220Z,21.10
2018-07-17T21:02:59.558Z,21.10
2018-07-17T21:05:29.424Z,21.00
2018-07-17T21:07:59.146Z,21.00
2018-07-17T21:10:28.374Z,21.10
2018-07-17T21:12:57.743Z,21.10
2018-07-17T21:15:26.978Z,21.10
2018-07-17T21:17:56.420Z,21.10
2018-07-17T21:20:26.662Z,21.10
2018-07-17T21:22:56.139Z,21.00
2018-07-17T21:25:26.727Z,21.00
2018-07-17T21:27:56.368Z,21.10
2018-07-17T21:30:26.034Z,21.10
2018-07-17T21:32:55.506Z,21.00
2018-07-17T21:35:24.968Z,21.00
2018-07-17T21:37:54.477Z,21.00
2018-07-17T21:40:25.999Z,21.00
2018-07-17T21:42:55.358Z,21.00
2018-07-17T21:45:24.804Z,21.00
2018-07-17T21:47:54.263Z,21.00
2018-07-17T21:50:23.576Z,21.00
2018-07-17T21:52:52.702Z,21.00
2018-07-17T21:55:23.095Z,20.90
2018-07-17T21:57:52.582Z,20.90
2018-07-17T22:00:21.770Z,20.80
2018-07-17T22:02:51.025Z,20.70
2018-07-17T22:05:20.217Z,20.80
2018-07-17T22:07:49.487Z,20.70
2018-07-17T22:10:18.667Z,20.60
2018-07-17T22:12:47.902Z,20.60
2018-07-17T22:15:18.800Z,20.60
2018-07-17T22:17:48.120Z,20.60
2018-07-17T22:20:17.351Z,20.60
2018-07-17T22:22:46.490Z,20.60
2018-07-17T22:25:15.778Z,20.60
2018-07-17T22:27:45.008Z,20.50
2018-07-17T22:30:14.157Z,20.50
2018-07-17T22:32:43.355Z,20.50
2018-07-17T22:35:12.507Z,20.50
2018-07-17T22:37:41.693Z,20.50
2018-07-17T22:40:10.861Z,20.50
2018-07-17T22:42:39.987Z,20.40
2018-07-17T22:45:09.175Z,20.40
2018-07-17T22:47:39.110Z,20.40
2018-07-17T22:50:08.601Z,20.40
2018-07-17T22:52:38.022Z,20.40
2018-07-17T22:55:07.569Z,20.40
2018-07-17T22:57:37.484Z,20.40
2018-07-17T23:00:07.817Z,20.30
2018-07-17T23:02:37.239Z,20.30
2018-07-17T23:05:07.061Z,20.30
2018-07-17T23:07:36.346Z,20.30
2018-07-17T23:10:05.632Z,20.30
2018-07-17T23:12:34.849Z,20.30
2018-07-17T23:15:05.188Z,20.30
2018-07-17T23:17:34.401Z,20.20
2018-07-17T23:20:03.663Z,20.10
2018-07-17T23:22:55.975Z,20.00
2018-07-17T23:25:26.152Z,20.00
2018-07-17T23:27:56.183Z,20.00
2018-07-17T23:30:25.342Z,19.90
2018-07-17T23:32:54.576Z,19.80
2018-07-17T23:35:24.663Z,19.80
2018-07-17T23:37:54.308Z,19.80
2018-07-17T23:40:23.773Z,19.70
2018-07-17T23:42:53.172Z,19.60
2018-07-17T23:45:22.273Z,19.60
2018-07-17T23:47:51.747Z,19.50
2018-07-17T23:50:20.943Z,19.50
2018-07-17T23:52:50.147Z,19.40
2018-07-17T23:55:19.473Z,19.40
2018-07-17T23:57:48.771Z,19.30
